sensor_id;sensor_type;location;lat;lon;timestamp;pressure;altitude;pressure_sealevel;temperature
12007;BMP180;6062;47.294;12.182;2023-05-13T00:01:23;80060.00;;;8.00
12007;BMP180;6062;47.294;12.182;2023-05-13T00:03:48;80054.00;;;8.00
12007;BMP180;6062;47.294;12.182;2023-05-13T00:06:14;80057.00;;;8.00
12007;BMP180;6062;47.294;12.182;2023-05-13T00:08:40;80055.00;;;8.00
12007;BMP180;6062;47.294;12.182;2023-05-13T00:11:06;80057.00;;;8.00
12007;BMP180;6062;47.294;12.182;2023-05-13T00:13:32;80061.00;;;8.00
12007;BMP180;6062;47.294;12.182;2023-05-13T00:15:58;80059.00;;;8.10
12007;BMP180;6062;47.294;12.182;2023-05-13T00:18:24;80066.00;;;8.10
12007;BMP180;6062;47.294;12.182;2023-05-13T00:20:50;80052.00;;;8.10
12007;BMP180;6062;47.294;12.182;2023-05-13T00:23:16;80058.00;;;8.10
12007;BMP180;6062;47.294;12.182;2023-05-13T00:25:42;80053.00;;;8.10
12007;BMP180;6062;47.294;12.182;2023-05-13T00:28:09;80053.00;;;8.10
12007;BMP180;6062;47.294;12.182;2023-05-13T00:30:36;80058.00;;;8.10
12007;BMP180;6062;47.294;12.182;2023-05-13T00:33:02;80062.00;;;8.10
12007;BMP180;6062;47.294;12.182;2023-05-13T00:35:27;80060.00;;;8.10
12007;BMP180;6062;47.294;12.182;2023-05-13T00:37:53;80050.00;;;8.00
12007;BMP180;6062;47.294;12.182;2023-05-13T00:40:22;80060.00;;;8.00
12007;BMP180;6062;47.294;12.182;2023-05-13T00:42:49;80057.00;;;8.00
12007;BMP180;6062;47.294;12.182;2023-05-13T00:45:15;80050.00;;;8.00
12007;BMP180;6062;47.294;12.182;2023-05-13T00:47:42;80056.00;;;8.00
12007;BMP180;6062;47.294;12.182;2023-05-13T00:50:10;80055.00;;;8.00
12007;BMP180;6062;47.294;12.182;2023-05-13T00:52:38;80051.00;;;8.00
12007;BMP180;6062;47.294;12.182;2023-05-13T00:55:05;80052.00;;;8.00
12007;BMP180;6062;47.294;12.182;2023-05-13T00:57:32;80061.00;;;8.00
12007;BMP180;6062;47.294;12.182;2023-05-13T00:59:58;80058.00;;;8.00
12007;BMP180;6062;47.294;12.182;2023-05-13T01:02:37;80055.00;;;8.00
12007;BMP180;6062;47.294;12.182;2023-05-13T01:08:19;80063.00;;;8.00
12007;BMP180;6062;47.294;12.182;2023-05-13T01:11:00;80054.00;;;8.00
12007;BMP180;6062;47.294;12.182;2023-05-13T01:13:35;80059.00;;;8.00
12007;BMP180;6062;47.294;12.182;2023-05-13T01:16:12;80054.00;;;8.00
12007;BMP180;6062;47.294;12.182;2023-05-13T01:18:45;80063.00;;;8.10
12007;BMP180;6062;47.294;12.182;2023-05-13T01:21:11;80063.00;;;8.10
12007;BMP180;6062;47.294;12.182;2023-05-13T01:23:37;80073.00;;;8.10
12007;BMP180;6062;47.294;12.182;2023-05-13T01:26:03;80066.00;;;8.10
12007;BMP180;6062;47.294;12.182;2023-05-13T01:28:29;80059.00;;;8.10
12007;BMP180;6062;47.294;12.182;2023-05-13T01:30:56;80071.00;;;8.10
12007;BMP180;6062;47.294;12.182;2023-05-13T01:33:22;80063.00;;;8.10
12007;BMP180;6062;47.294;12.182;2023-05-13T01:35:50;80065.00;;;8.10
12007;BMP180;6062;47.294;12.182;2023-05-13T01:38:17;80062.00;;;8.10
12007;BMP180;6062;47.294;12.182;2023-05-13T01:40:44;80064.00;;;8.10
12007;BMP180;6062;47.294;12.182;2023-05-13T01:43:10;80066.00;;;8.10
12007;BMP180;6062;47.294;12.182;2023-05-13T01:45:36;80071.00;;;8.10
12007;BMP180;6062;47.294;12.182;2023-05-13T01:48:02;80074.00;;;8.10
12007;BMP180;6062;47.294;12.182;2023-05-13T01:50:28;80077.00;;;8.10
12007;BMP180;6062;47.294;12.182;2023-05-13T01:52:53;80064.00;;;8.10
12007;BMP180;6062;47.294;12.182;2023-05-13T01:55:19;80069.00;;;8.10
12007;BMP180;6062;47.294;12.182;2023-05-13T01:57:45;80072.00;;;8.10
12007;BMP180;6062;47.294;12.182;2023-05-13T02:00:11;80060.00;;;8.10
12007;BMP180;6062;47.294;12.182;2023-05-13T02:02:37;80071.00;;;8.10
12007;BMP180;6062;47.294;12.182;2023-05-13T02:05:03;80068.00;;;8.10
12007;BMP180;6062;47.294;12.182;2023-05-13T02:07:29;80063.00;;;8.10
12007;BMP180;6062;47.294;12.182;2023-05-13T02:09:55;80071.00;;;8.10
12007;BMP180;6062;47.294;12.182;2023-05-13T02:12:25;80079.00;;;8.10
12007;BMP180;6062;47.294;12.182;2023-05-13T02:14:53;80077.00;;;8.10
12007;BMP180;6062;47.294;12.182;2023-05-13T02:17:20;80069.00;;;8.10
12007;BMP180;6062;47.294;12.182;2023-05-13T02:19:46;80071.00;;;8.10
12007;BMP180;6062;47.294;12.182;2023-05-13T02:22:12;80074.00;;;8.10
12007;BMP180;6062;47.294;12.182;2023-05-13T02:24:38;80072.00;;;8.20
12007;BMP180;6062;47.294;12.182;2023-05-13T02:27:07;80072.00;;;8.20
12007;BMP180;6062;47.294;12.182;2023-05-13T02:29:33;80062.00;;;8.20
12007;BMP180;6062;47.294;12.182;2023-05-13T02:31:59;80069.00;;;8.20
12007;BMP180;6062;47.294;12.182;2023-05-13T02:34:25;80065.00;;;8.20
12007;BMP180;6062;47.294;12.182;2023-05-13T02:36:51;80070.00;;;8.20
12007;BMP180;6062;47.294;12.182;2023-05-13T02:39:17;80057.00;;;8.20
12007;BMP180;6062;47.294;12.182;2023-05-13T02:41:42;80062.00;;;8.10
12007;BMP180;6062;47.294;12.182;2023-05-13T02:44:09;80069.00;;;8.10
12007;BMP180;6062;47.294;12.182;2023-05-13T02:46:35;80059.00;;;8.10
12007;BMP180;6062;47.294;12.182;2023-05-13T02:49:01;80065.00;;;8.10
12007;BMP180;6062;47.294;12.182;2023-05-13T02:51:27;80066.00;;;8.10
12007;BMP180;6062;47.294;12.182;2023-05-13T02:53:53;80082.00;;;8.00
12007;BMP180;6062;47.294;12.182;2023-05-13T02:56:18;80068.00;;;8.00
12007;BMP180;6062;47.294;12.182;2023-05-13T02:58:45;80062.00;;;8.00
12007;BMP180;6062;47.294;12.182;2023-05-13T03:01:11;80066.00;;;8.00
12007;BMP180;6062;47.294;12.182;2023-05-13T03:03:37;80066.00;;;8.00
12007;BMP180;6062;47.294;12.182;2023-05-13T03:06:04;80074.00;;;7.90
12007;BMP180;6062;47.294;12.182;2023-05-13T03:08:30;80066.00;;;7.90
12007;BMP180;6062;47.294;12.182;2023-05-13T03:10:57;80072.00;;;7.90
12007;BMP180;6062;47.294;12.182;2023-05-13T03:13:23;80074.00;;;7.90
12007;BMP180;6062;47.294;12.182;2023-05-13T03:15:49;80074.00;;;7.90
12007;BMP180;6062;47.294;12.182;2023-05-13T03:18:15;80071.00;;;7.90
12007;BMP180;6062;47.294;12.182;2023-05-13T03:20:40;80077.00;;;7.90
12007;BMP180;6062;47.294;12.182;2023-05-13T03:23:06;80075.00;;;7.90
12007;BMP180;6062;47.294;12.182;2023-05-13T03:25:32;80086.00;;;7.90
12007;BMP180;6062;47.294;12.182;2023-05-13T03:27:58;80079.00;;;7.90
12007;BMP180;6062;47.294;12.182;2023-05-13T03:30:23;80081.00;;;7.90
12007;BMP180;6062;47.294;12.182;2023-05-13T03:32:49;80078.00;;;7.90
12007;BMP180;6062;47.294;12.182;2023-05-13T03:35:15;80078.00;;;7.90
12007;BMP180;6062;47.294;12.182;2023-05-13T03:37:40;80081.00;;;7.90
12007;BMP180;6062;47.294;12.182;2023-05-13T03:40:07;80083.00;;;7.90
12007;BMP180;6062;47.294;12.182;2023-05-13T03:42:33;80090.00;;;7.80
12007;BMP180;6062;47.294;12.182;2023-05-13T03:44:58;80075.00;;;7.80
12007;BMP180;6062;47.294;12.182;2023-05-13T03:47:24;80090.00;;;7.80
12007;BMP180;6062;47.294;12.182;2023-05-13T03:49:50;80092.00;;;7.80
12007;BMP180;6062;47.294;12.182;2023-05-13T03:52:16;80093.00;;;7.80
12007;BMP180;6062;47.294;12.182;2023-05-13T03:54:42;80088.00;;;7.80
12007;BMP180;6062;47.294;12.182;2023-05-13T03:57:08;80098.00;;;7.80
12007;BMP180;6062;47.294;12.182;2023-05-13T03:59:33;80091.00;;;7.80
12007;BMP180;6062;47.294;12.182;2023-05-13T04:01:59;80087.00;;;7.70
12007;BMP180;6062;47.294;12.182;2023-05-13T04:04:25;80094.00;;;7.70
12007;BMP180;6062;47.294;12.182;2023-05-13T04:06:51;80095.00;;;7.70
12007;BMP180;6062;47.294;12.182;2023-05-13T04:09:17;80095.00;;;7.70
12007;BMP180;6062;47.294;12.182;2023-05-13T04:11:42;80101.00;;;7.70
12007;BMP180;6062;47.294;12.182;2023-05-13T04:14:08;80101.00;;;7.70
12007;BMP180;6062;47.294;12.182;2023-05-13T04:16:34;80102.00;;;7.70
12007;BMP180;6062;47.294;12.182;2023-05-13T04:19:00;80106.00;;;7.70
12007;BMP180;6062;47.294;12.182;2023-05-13T04:21:26;80109.00;;;7.70
12007;BMP180;6062;47.294;12.182;2023-05-13T04:23:52;80101.00;;;7.70
12007;BMP180;6062;47.294;12.182;2023-05-13T04:26:17;80101.00;;;7.70
12007;BMP180;6062;47.294;12.182;2023-05-13T04:28:43;80101.00;;;7.70
12007;BMP180;6062;47.294;12.182;2023-05-13T04:31:09;80114.00;;;7.80
12007;BMP180;6062;47.294;12.182;2023-05-13T04:33:36;80106.00;;;7.80
12007;BMP180;6062;47.294;12.182;2023-05-13T04:36:02;80108.00;;;7.80
12007;BMP180;6062;47.294;12.182;2023-05-13T04:38:30;80115.00;;;7.80
12007;BMP180;6062;47.294;12.182;2023-05-13T04:40:55;80111.00;;;7.90
12007;BMP180;6062;47.294;12.182;2023-05-13T04:43:21;80108.00;;;8.00
12007;BMP180;6062;47.294;12.182;2023-05-13T04:45:47;80115.00;;;8.00
12007;BMP180;6062;47.294;12.182;2023-05-13T04:48:14;80114.00;;;8.10
12007;BMP180;6062;47.294;12.182;2023-05-13T04:50:45;80126.00;;;8.10
12007;BMP180;6062;47.294;12.182;2023-05-13T04:53:11;80121.00;;;8.20
12007;BMP180;6062;47.294;12.182;2023-05-13T04:55:37;80128.00;;;8.20
12007;BMP180;6062;47.294;12.182;2023-05-13T04:58:02;80120.00;;;8.30
12007;BMP180;6062;47.294;12.182;2023-05-13T05:00:28;80118.00;;;8.30
12007;BMP180;6062;47.294;12.182;2023-05-13T05:02:54;80132.00;;;8.40
12007;BMP180;6062;47.294;12.182;2023-05-13T05:05:20;80119.00;;;8.40
12007;BMP180;6062;47.294;12.182;2023-05-13T05:07:46;80141.00;;;8.50
12007;BMP180;6062;47.294;12.182;2023-05-13T05:10:11;80144.00;;;8.50
12007;BMP180;6062;47.294;12.182;2023-05-13T05:12:37;80141.00;;;8.60
12007;BMP180;6062;47.294;12.182;2023-05-13T05:15:04;80136.00;;;8.60
12007;BMP180;6062;47.294;12.182;2023-05-13T05:17:30;80134.00;;;8.70
12007;BMP180;6062;47.294;12.182;2023-05-13T05:19:58;80123.00;;;8.70
12007;BMP180;6062;47.294;12.182;2023-05-13T05:22:25;80137.00;;;8.80
12007;BMP180;6062;47.294;12.182;2023-05-13T05:24:51;80143.00;;;8.80
12007;BMP180;6062;47.294;12.182;2023-05-13T05:27:17;80134.00;;;8.80
12007;BMP180;6062;47.294;12.182;2023-05-13T05:29:43;80140.00;;;8.80
12007;BMP180;6062;47.294;12.182;2023-05-13T05:32:09;80134.00;;;8.80
12007;BMP180;6062;47.294;12.182;2023-05-13T05:34:35;80144.00;;;8.80
12007;BMP180;6062;47.294;12.182;2023-05-13T05:37:01;80139.00;;;8.80
12007;BMP180;6062;47.294;12.182;2023-05-13T05:39:26;80139.00;;;8.90
12007;BMP180;6062;47.294;12.182;2023-05-13T05:41:52;80145.00;;;9.00
12007;BMP180;6062;47.294;12.182;2023-05-13T05:44:18;80140.00;;;9.10
12007;BMP180;6062;47.294;12.182;2023-05-13T05:46:43;80136.00;;;9.20
12007;BMP180;6062;47.294;12.182;2023-05-13T05:49:09;80144.00;;;9.30
12007;BMP180;6062;47.294;12.182;2023-05-13T05:51:35;80146.00;;;9.40
12007;BMP180;6062;47.294;12.182;2023-05-13T05:54:00;80142.00;;;9.50
12007;BMP180;6062;47.294;12.182;2023-05-13T05:56:26;80151.00;;;9.70
12007;BMP180;6062;47.294;12.182;2023-05-13T05:58:52;80144.00;;;9.80
12007;BMP180;6062;47.294;12.182;2023-05-13T06:01:17;80152.00;;;10.00
12007;BMP180;6062;47.294;12.182;2023-05-13T06:03:43;80154.00;;;10.10
12007;BMP180;6062;47.294;12.182;2023-05-13T06:06:10;80144.00;;;10.30
12007;BMP180;6062;47.294;12.182;2023-05-13T06:08:36;80157.00;;;10.50
12007;BMP180;6062;47.294;12.182;2023-05-13T06:11:01;80159.00;;;10.60
12007;BMP180;6062;47.294;12.182;2023-05-13T06:13:27;80153.00;;;10.80
12007;BMP180;6062;47.294;12.182;2023-05-13T06:15:53;80162.00;;;10.90
12007;BMP180;6062;47.294;12.182;2023-05-13T06:18:18;80155.00;;;11.00
12007;BMP180;6062;47.294;12.182;2023-05-13T06:20:44;80163.00;;;11.20
12007;BMP180;6062;47.294;12.182;2023-05-13T06:23:10;80169.00;;;11.30
12007;BMP180;6062;47.294;12.182;2023-05-13T06:25:36;80166.00;;;11.40
12007;BMP180;6062;47.294;12.182;2023-05-13T06:28:01;80165.00;;;11.50
12007;BMP180;6062;47.294;12.182;2023-05-13T06:30:27;80171.00;;;11.60
12007;BMP180;6062;47.294;12.182;2023-05-13T06:32:53;80173.00;;;11.70
12007;BMP180;6062;47.294;12.182;2023-05-13T06:35:20;80167.00;;;11.80
12007;BMP180;6062;47.294;12.182;2023-05-13T06:37:45;80168.00;;;11.90
12007;BMP180;6062;47.294;12.182;2023-05-13T06:40:11;80173.00;;;12.10
12007;BMP180;6062;47.294;12.182;2023-05-13T06:42:37;80169.00;;;12.30
12007;BMP180;6062;47.294;12.182;2023-05-13T06:45:07;80159.00;;;12.50
12007;BMP180;6062;47.294;12.182;2023-05-13T06:47:33;80166.00;;;12.80
12007;BMP180;6062;47.294;12.182;2023-05-13T06:50:00;80169.00;;;13.10
12007;BMP180;6062;47.294;12.182;2023-05-13T06:52:25;80174.00;;;13.40
12007;BMP180;6062;47.294;12.182;2023-05-13T06:54:51;80174.00;;;13.80
12007;BMP180;6062;47.294;12.182;2023-05-13T06:57:17;80172.00;;;14.00
12007;BMP180;6062;47.294;12.182;2023-05-13T06:59:43;80167.00;;;14.30
12007;BMP180;6062;47.294;12.182;2023-05-13T07:02:09;80172.00;;;14.50
12007;BMP180;6062;47.294;12.182;2023-05-13T07:04:36;80175.00;;;14.60
12007;BMP180;6062;47.294;12.182;2023-05-13T07:07:02;80172.00;;;14.80
12007;BMP180;6062;47.294;12.182;2023-05-13T07:09:28;80162.00;;;15.00
12007;BMP180;6062;47.294;12.182;2023-05-13T07:11:53;80172.00;;;15.30
12007;BMP180;6062;47.294;12.182;2023-05-13T07:14:19;80173.00;;;15.60
12007;BMP180;6062;47.294;12.182;2023-05-13T07:16:45;80172.00;;;15.90
12007;BMP180;6062;47.294;12.182;2023-05-13T07:19:11;80173.00;;;16.30
12007;BMP180;6062;47.294;12.182;2023-05-13T07:21:37;80180.00;;;16.80
12007;BMP180;6062;47.294;12.182;2023-05-13T07:24:03;80183.00;;;17.20
12007;BMP180;6062;47.294;12.182;2023-05-13T07:26:30;80180.00;;;17.60
12007;BMP180;6062;47.294;12.182;2023-05-13T07:28:56;80183.00;;;18.00
12007;BMP180;6062;47.294;12.182;2023-05-13T07:31:23;80182.00;;;18.40
12007;BMP180;6062;47.294;12.182;2023-05-13T07:33:56;80183.00;;;18.90
12007;BMP180;6062;47.294;12.182;2023-05-13T07:36:22;80183.00;;;19.30
12007;BMP180;6062;47.294;12.182;2023-05-13T07:38:47;80185.00;;;19.70
12007;BMP180;6062;47.294;12.182;2023-05-13T07:41:13;80186.00;;;20.00
12007;BMP180;6062;47.294;12.182;2023-05-13T07:43:39;80189.00;;;20.30
12007;BMP180;6062;47.294;12.182;2023-05-13T07:46:05;80186.00;;;20.40
12007;BMP180;6062;47.294;12.182;2023-05-13T07:48:31;80198.00;;;20.30
12007;BMP180;6062;47.294;12.182;2023-05-13T07:50:56;80189.00;;;20.30
12007;BMP180;6062;47.294;12.182;2023-05-13T07:53:22;80184.00;;;20.40
12007;BMP180;6062;47.294;12.182;2023-05-13T07:55:48;80181.00;;;20.60
12007;BMP180;6062;47.294;12.182;2023-05-13T07:58:14;80186.00;;;20.80
12007;BMP180;6062;47.294;12.182;2023-05-13T08:00:39;80187.00;;;20.90
12007;BMP180;6062;47.294;12.182;2023-05-13T08:03:05;80187.00;;;20.90
12007;BMP180;6062;47.294;12.182;2023-05-13T08:05:31;80190.00;;;20.60
12007;BMP180;6062;47.294;12.182;2023-05-13T08:07:57;80196.00;;;20.30
12007;BMP180;6062;47.294;12.182;2023-05-13T08:10:23;80188.00;;;20.10
12007;BMP180;6062;47.294;12.182;2023-05-13T08:12:49;80188.00;;;19.90
12007;BMP180;6062;47.294;12.182;2023-05-13T08:15:18;80187.00;;;19.80
12007;BMP180;6062;47.294;12.182;2023-05-13T08:17:44;80189.00;;;19.80
12007;BMP180;6062;47.294;12.182;2023-05-13T08:20:10;80190.00;;;19.70
12007;BMP180;6062;47.294;12.182;2023-05-13T08:22:36;80189.00;;;19.70
12007;BMP180;6062;47.294;12.182;2023-05-13T08:25:02;80193.00;;;19.80
12007;BMP180;6062;47.294;12.182;2023-05-13T08:27:28;80189.00;;;20.00
12007;BMP180;6062;47.294;12.182;2023-05-13T08:29:54;80191.00;;;20.10
12007;BMP180;6062;47.294;12.182;2023-05-13T08:32:19;80193.00;;;20.20
12007;BMP180;6062;47.294;12.182;2023-05-13T08:34:46;80188.00;;;20.40
12007;BMP180;6062;47.294;12.182;2023-05-13T08:37:11;80197.00;;;20.80
12007;BMP180;6062;47.294;12.182;2023-05-13T08:39:37;80195.00;;;21.30
12007;BMP180;6062;47.294;12.182;2023-05-13T08:42:03;80200.00;;;21.90
12007;BMP180;6062;47.294;12.182;2023-05-13T08:44:38;80198.00;;;22.70
12007;BMP180;6062;47.294;12.182;2023-05-13T08:47:25;80201.00;;;23.40
12007;BMP180;6062;47.294;12.182;2023-05-13T08:49:52;80203.00;;;24.00
12007;BMP180;6062;47.294;12.182;2023-05-13T08:52:19;80210.00;;;24.20
12007;BMP180;6062;47.294;12.182;2023-05-13T08:54:46;80215.00;;;24.20
12007;BMP180;6062;47.294;12.182;2023-05-13T08:57:12;80210.00;;;24.00
12007;BMP180;6062;47.294;12.182;2023-05-13T08:59:37;80204.00;;;23.90
12007;BMP180;6062;47.294;12.182;2023-05-13T09:02:04;80211.00;;;23.70
12007;BMP180;6062;47.294;12.182;2023-05-13T09:04:31;80212.00;;;23.40
12007;BMP180;6062;47.294;12.182;2023-05-13T09:07:05;80207.00;;;23.10
12007;BMP180;6062;47.294;12.182;2023-05-13T09:09:31;80211.00;;;22.70
12007;BMP180;6062;47.294;12.182;2023-05-13T09:11:57;80211.00;;;22.40
12007;BMP180;6062;47.294;12.182;2023-05-13T09:14:29;80209.00;;;22.00
12007;BMP180;6062;47.294;12.182;2023-05-13T09:16:56;80208.00;;;21.60
12007;BMP180;6062;47.294;12.182;2023-05-13T09:19:23;80208.00;;;21.10
12007;BMP180;6062;47.294;12.182;2023-05-13T09:21:51;80203.00;;;20.70
12007;BMP180;6062;47.294;12.182;2023-05-13T09:24:17;80204.00;;;20.00
12007;BMP180;6062;47.294;12.182;2023-05-13T09:26:44;80208.00;;;19.40
12007;BMP180;6062;47.294;12.182;2023-05-13T09:29:26;80210.00;;;18.70
12007;BMP180;6062;47.294;12.182;2023-05-13T09:32:00;80211.00;;;18.10
12007;BMP180;6062;47.294;12.182;2023-05-13T09:37:05;80214.00;;;16.90
12007;BMP180;6062;47.294;12.182;2023-05-13T09:39:37;80212.00;;;16.20
12007;BMP180;6062;47.294;12.182;2023-05-13T09:42:04;80207.00;;;15.60
12007;BMP180;6062;47.294;12.182;2023-05-13T09:44:31;80206.00;;;15.20
12007;BMP180;6062;47.294;12.182;2023-05-13T09:46:57;80211.00;;;15.00
12007;BMP180;6062;47.294;12.182;2023-05-13T09:49:25;80206.00;;;14.80
12007;BMP180;6062;47.294;12.182;2023-05-13T09:51:51;80212.00;;;14.80
12007;BMP180;6062;47.294;12.182;2023-05-13T09:54:17;80202.00;;;14.80
12007;BMP180;6062;47.294;12.182;2023-05-13T09:56:43;80209.00;;;14.80
12007;BMP180;6062;47.294;12.182;2023-05-13T09:59:08;80204.00;;;14.90
12007;BMP180;6062;47.294;12.182;2023-05-13T10:01:35;80200.00;;;15.10
12007;BMP180;6062;47.294;12.182;2023-05-13T10:04:03;80200.00;;;15.30
12007;BMP180;6062;47.294;12.182;2023-05-13T10:06:30;80209.00;;;15.50
12007;BMP180;6062;47.294;12.182;2023-05-13T10:08:59;80207.00;;;15.70
12007;BMP180;6062;47.294;12.182;2023-05-13T10:11:32;80199.00;;;16.00
12007;BMP180;6062;47.294;12.182;2023-05-13T10:14:04;80212.00;;;16.30
12007;BMP180;6062;47.294;12.182;2023-05-13T10:16:33;80211.00;;;16.60
12007;BMP180;6062;47.294;12.182;2023-05-13T10:19:00;80215.00;;;16.90
12007;BMP180;6062;47.294;12.182;2023-05-13T10:21:27;80209.00;;;17.20
12007;BMP180;6062;47.294;12.182;2023-05-13T10:23:53;80206.00;;;17.50
12007;BMP180;6062;47.294;12.182;2023-05-13T10:26:22;80205.00;;;17.70
12007;BMP180;6062;47.294;12.182;2023-05-13T10:28:49;80214.00;;;17.90
12007;BMP180;6062;47.294;12.182;2023-05-13T10:31:16;80205.00;;;17.90
12007;BMP180;6062;47.294;12.182;2023-05-13T10:33:42;80210.00;;;17.70
12007;BMP180;6062;47.294;12.182;2023-05-13T10:36:34;80210.00;;;17.40
12007;BMP180;6062;47.294;12.182;2023-05-13T10:42:36;80209.00;;;16.80
12007;BMP180;6062;47.294;12.182;2023-05-13T10:45:04;80206.00;;;16.70
12007;BMP180;6062;47.294;12.182;2023-05-13T10:47:32;80211.00;;;16.50
12007;BMP180;6062;47.294;12.182;2023-05-13T10:49:58;80204.00;;;16.50
12007;BMP180;6062;47.294;12.182;2023-05-13T10:52:48;80196.00;;;16.70
12007;BMP180;6062;47.294;12.182;2023-05-13T10:55:17;80195.00;;;16.90
12007;BMP180;6062;47.294;12.182;2023-05-13T10:58:10;80193.00;;;17.40
12007;BMP180;6062;47.294;12.182;2023-05-13T11:00:42;80205.00;;;17.70
12007;BMP180;6062;47.294;12.182;2023-05-13T11:05:57;80203.00;;;18.30
12007;BMP180;6062;47.294;12.182;2023-05-13T11:08:50;80209.00;;;18.60
12007;BMP180;6062;47.294;12.182;2023-05-13T11:11:30;80212.00;;;18.80
12007;BMP180;6062;47.294;12.182;2023-05-13T11:14:23;80210.00;;;19.10
12007;BMP180;6062;47.294;12.182;2023-05-13T11:19:43;80210.00;;;19.60
12007;BMP180;6062;47.294;12.182;2023-05-13T11:22:23;80218.00;;;19.80
12007;BMP180;6062;47.294;12.182;2023-05-13T11:25:09;80213.00;;;19.90
12007;BMP180;6062;47.294;12.182;2023-05-13T11:27:40;80209.00;;;20.00
12007;BMP180;6062;47.294;12.182;2023-05-13T11:30:21;80214.00;;;20.10
12007;BMP180;6062;47.294;12.182;2023-05-13T11:35:26;80219.00;;;20.20
12007;BMP180;6062;47.294;12.182;2023-05-13T11:37:53;80212.00;;;20.00
12007;BMP180;6062;47.294;12.182;2023-05-13T11:40:24;80207.00;;;19.70
12007;BMP180;6062;47.294;12.182;2023-05-13T11:42:51;80211.00;;;19.60
12007;BMP180;6062;47.294;12.182;2023-05-13T11:45:18;80207.00;;;19.40
12007;BMP180;6062;47.294;12.182;2023-05-13T11:47:45;80206.00;;;19.00
12007;BMP180;6062;47.294;12.182;2023-05-13T11:50:27;80206.00;;;18.70
12007;BMP180;6062;47.294;12.182;2023-05-13T11:53:01;80213.00;;;18.40
12007;BMP180;6062;47.294;12.182;2023-05-13T11:55:32;80210.00;;;18.20
12007;BMP180;6062;47.294;12.182;2023-05-13T11:58:02;80206.00;;;18.20
12007;BMP180;6062;47.294;12.182;2023-05-13T12:00:32;80213.00;;;18.10
12007;BMP180;6062;47.294;12.182;2023-05-13T12:03:01;80219.00;;;18.00
12007;BMP180;6062;47.294;12.182;2023-05-13T12:05:27;80211.00;;;17.70
12007;BMP180;6062;47.294;12.182;2023-05-13T12:07:57;80214.00;;;17.40
12007;BMP180;6062;47.294;12.182;2023-05-13T12:10:23;80213.00;;;17.20
12007;BMP180;6062;47.294;12.182;2023-05-13T12:12:50;80217.00;;;17.20
12007;BMP180;6062;47.294;12.182;2023-05-13T12:15:18;80222.00;;;17.20
12007;BMP180;6062;47.294;12.182;2023-05-13T12:17:45;80225.00;;;17.10
12007;BMP180;6062;47.294;12.182;2023-05-13T12:20:14;80221.00;;;16.80
12007;BMP180;6062;47.294;12.182;2023-05-13T12:25:47;80221.00;;;16.10
12007;BMP180;6062;47.294;12.182;2023-05-13T12:28:26;80221.00;;;16.00
12007;BMP180;6062;47.294;12.182;2023-05-13T12:31:02;80224.00;;;16.00
12007;BMP180;6062;47.294;12.182;2023-05-13T12:33:30;80224.00;;;16.00
12007;BMP180;6062;47.294;12.182;2023-05-13T12:36:24;80219.00;;;16.00
12007;BMP180;6062;47.294;12.182;2023-05-13T12:39:10;80220.00;;;16.10
12007;BMP180;6062;47.294;12.182;2023-05-13T12:41:50;80224.00;;;16.10
12007;BMP180;6062;47.294;12.182;2023-05-13T12:44:18;80228.00;;;16.10
12007;BMP180;6062;47.294;12.182;2023-05-13T12:46:53;80231.00;;;16.00
12007;BMP180;6062;47.294;12.182;2023-05-13T12:49:19;80231.00;;;15.70
12007;BMP180;6062;47.294;12.182;2023-05-13T12:51:44;80222.00;;;15.60
12007;BMP180;6062;47.294;12.182;2023-05-13T12:54:11;80218.00;;;15.50
12007;BMP180;6062;47.294;12.182;2023-05-13T12:56:37;80220.00;;;15.20
12007;BMP180;6062;47.294;12.182;2023-05-13T12:59:07;80226.00;;;15.00
12007;BMP180;6062;47.294;12.182;2023-05-13T13:01:34;80226.00;;;14.90
12007;BMP180;6062;47.294;12.182;2023-05-13T13:04:00;80229.00;;;14.70
12007;BMP180;6062;47.294;12.182;2023-05-13T13:06:26;80226.00;;;14.50
12007;BMP180;6062;47.294;12.182;2023-05-13T13:08:51;80224.00;;;14.40
12007;BMP180;6062;47.294;12.182;2023-05-13T13:11:17;80223.00;;;14.30
12007;BMP180;6062;47.294;12.182;2023-05-13T13:13:44;80216.00;;;14.30
12007;BMP180;6062;47.294;12.182;2023-05-13T13:16:11;80228.00;;;14.20
12007;BMP180;6062;47.294;12.182;2023-05-13T13:18:40;80225.00;;;14.00
12007;BMP180;6062;47.294;12.182;2023-05-13T13:21:07;80225.00;;;13.80
12007;BMP180;6062;47.294;12.182;2023-05-13T13:23:33;80215.00;;;13.50
12007;BMP180;6062;47.294;12.182;2023-05-13T13:25:59;80207.00;;;13.40
12007;BMP180;6062;47.294;12.182;2023-05-13T13:28:25;80212.00;;;13.30
12007;BMP180;6062;47.294;12.182;2023-05-13T13:30:51;80210.00;;;13.20
12007;BMP180;6062;47.294;12.182;2023-05-13T13:33:18;80203.00;;;13.10
12007;BMP180;6062;47.294;12.182;2023-05-13T13:35:45;80206.00;;;13.20
12007;BMP180;6062;47.294;12.182;2023-05-13T13:38:12;80199.00;;;13.30
12007;BMP180;6062;47.294;12.182;2023-05-13T13:40:38;80205.00;;;13.40
12007;BMP180;6062;47.294;12.182;2023-05-13T13:43:05;80212.00;;;13.50
12007;BMP180;6062;47.294;12.182;2023-05-13T13:45:32;80212.00;;;13.50
12007;BMP180;6062;47.294;12.182;2023-05-13T13:47:58;80213.00;;;13.60
12007;BMP180;6062;47.294;12.182;2023-05-13T13:50:24;80217.00;;;13.70
12007;BMP180;6062;47.294;12.182;2023-05-13T13:52:50;80219.00;;;13.80
12007;BMP180;6062;47.294;12.182;2023-05-13T13:55:18;80219.00;;;14.00
12007;BMP180;6062;47.294;12.182;2023-05-13T13:57:44;80215.00;;;14.30
12007;BMP180;6062;47.294;12.182;2023-05-13T14:00:11;80209.00;;;14.60
12007;BMP180;6062;47.294;12.182;2023-05-13T14:02:37;80226.00;;;14.70
12007;BMP180;6062;47.294;12.182;2023-05-13T14:05:03;80220.00;;;14.40
12007;BMP180;6062;47.294;12.182;2023-05-13T14:07:29;80211.00;;;14.10
12007;BMP180;6062;47.294;12.182;2023-05-13T14:09:54;80209.00;;;13.70
12007;BMP180;6062;47.294;12.182;2023-05-13T14:12:20;80197.00;;;13.30
12007;BMP180;6062;47.294;12.182;2023-05-13T14:14:46;80199.00;;;12.90
12007;BMP180;6062;47.294;12.182;2023-05-13T14:17:12;80196.00;;;12.70
12007;BMP180;6062;47.294;12.182;2023-05-13T14:19:37;80193.00;;;12.60
12007;BMP180;6062;47.294;12.182;2023-05-13T14:22:03;80195.00;;;12.40
12007;BMP180;6062;47.294;12.182;2023-05-13T14:24:29;80192.00;;;12.20
12007;BMP180;6062;47.294;12.182;2023-05-13T14:26:55;80199.00;;;12.00
12007;BMP180;6062;47.294;12.182;2023-05-13T14:29:21;80200.00;;;11.90
12007;BMP180;6062;47.294;12.182;2023-05-13T14:31:47;80200.00;;;11.80
12007;BMP180;6062;47.294;12.182;2023-05-13T14:34:13;80200.00;;;11.70
12007;BMP180;6062;47.294;12.182;2023-05-13T14:36:38;80211.00;;;11.70